createdAt,value
2018-03-04T00:00:24.360Z,55.90
2018-03-04T00:01:22.200Z,49.50
2018-03-04T00:02:22.767Z,52.50
2018-03-04T00:03:20.455Z,52.20
2018-03-04T00:04:24.775Z,49.80
2018-03-04T00:05:22.452Z,52.60
2018-03-04T00:06:48.976Z,54.50
2018-03-04T00:07:47.735Z,51.10
2018-03-04T00:08:46.594Z,51.20
2018-03-04T00:09:48.592Z,51.20
2018-03-04T00:10:47.887Z,50.00
2018-03-04T00:11:45.929Z,52.00
2018-03-04T00:13:11.265Z,54.30
2018-03-04T00:14:15.057Z,53.70
2018-03-04T00:15:12.249Z,49.20
2018-03-04T00:16:37.392Z,48.30
2018-03-04T00:17:34.347Z,50.00
2018-03-04T00:18:34.074Z,52.90
2018-03-04T00:19:59.017Z,46.00
2018-03-04T00:20:58.417Z,45.70
2018-03-04T00:22:00.680Z,54.00
2018-03-04T00:23:02.162Z,50.10
2018-03-04T00:23:58.823Z,51.70
2018-03-04T00:25:03.186Z,52.80
2018-03-04T00:25:58.858Z,49.70
2018-03-04T00:27:00.439Z,51.10
2018-03-04T00:28:01.136Z,53.20
2018-03-04T00:29:01.662Z,48.10
2018-03-04T00:30:07.703Z,48.60
2018-03-04T00:31:30.203Z,49.60
2018-03-04T00:32:26.402Z,48.10
2018-03-04T00:33:28.317Z,48.90
2018-03-04T00:34:33.893Z,46.60
2018-03-04T00:35:27.967Z,53.60
2018-03-04T00:36:35.920Z,51.20
2018-03-04T00:37:28.799Z,49.70
2018-03-04T00:38:27.870Z,45.20
2018-03-04T00:39:31.271Z,49.60
2018-03-04T00:40:27.241Z,49.30
2018-03-04T00:41:54.890Z,51.10
2018-03-04T00:42:52.132Z,50.50
2018-03-04T00:43:58.607Z,50.40
2018-03-04T00:44:56.124Z,49.30
2018-03-04T00:45:56.026Z,56.40
2018-03-04T00:46:54.572Z,54.40
2018-03-04T00:48:27.322Z,51.10
2018-03-04T00:49:30.715Z,52.20
2018-03-04T00:50:26.102Z,52.70
2018-03-04T00:51:26.451Z,50.70
2018-03-04T00:52:25.345Z,50.30
2018-03-04T00:53:24.639Z,53.00
2018-03-04T00:54:27.536Z,55.80
2018-03-04T00:55:56.287Z,54.20
2018-03-04T00:56:56.424Z,50.20
2018-03-04T00:57:52.312Z,51.30
2018-03-04T00:58:55.242Z,46.90
2018-03-04T00:59:50.587Z,54.50
2018-03-04T01:01:20.750Z,47.70
2018-03-04T01:02:23.159Z,51.70
2018-03-04T01:03:22.876Z,54.70
2018-03-04T01:04:22.797Z,57.70
2018-03-04T01:05:23.016Z,51.90
2018-03-04T01:06:21.040Z,52.30
2018-03-04T01:07:21.971Z,56.90
2018-03-04T01:08:24.552Z,46.70
2018-03-04T01:09:20.912Z,53.40
2018-03-04T01:10:22.212Z,49.30
2018-03-04T01:11:18.741Z,52.40
2018-03-04T01:12:21.988Z,51.90
2018-03-04T01:13:28.204Z,49.40
2018-03-04T01:14:22.429Z,53.00
2018-03-04T01:15:23.045Z,47.10
2018-03-04T01:17:02.439Z,51.00
2018-03-04T01:17:53.367Z,55.40
2018-03-04T01:18:57.453Z,52.70
2018-03-04T01:19:54.630Z,53.70
2018-03-04T01:20:56.672Z,55.50
2018-03-04T01:21:59.275Z,51.10
2018-03-04T01:22:53.920Z,56.10
2018-03-04T01:23:53.756Z,58.30
2018-03-04T01:24:56.017Z,56.40
2018-03-04T01:25:55.531Z,51.70
2018-03-04T01:26:52.860Z,52.60
2018-03-04T01:27:58.564Z,58.40
2018-03-04T01:28:48.973Z,54.00
2018-03-04T01:29:53.802Z,51.50
2018-03-04T01:30:50.830Z,49.90
2018-03-04T01:32:12.141Z,56.40
2018-03-04T01:33:18.593Z,51.20
2018-03-04T01:34:18.354Z,54.60
2018-03-04T01:35:18.021Z,50.80
2018-03-04T01:36:14.665Z,52.60
2018-03-04T01:37:14.747Z,55.50
2018-03-04T01:38:12.977Z,54.20
2018-03-04T01:39:16.080Z,56.30
2018-03-04T01:40:13.449Z,53.20
2018-03-04T01:41:14.067Z,56.80
2018-03-04T01:42:22.287Z,54.10
2018-03-04T01:43:15.117Z,54.50
2018-03-04T01:44:14.156Z,58.30
2018-03-04T01:45:13.234Z,56.90
2018-03-04T01:46:12.518Z,53.80
2018-03-04T01:47:17.339Z,60.40
2018-03-04T01:48:12.948Z,56.20
2018-03-04T01:49:38.470Z,56.30
2018-03-04T01:51:10.885Z,59.00
2018-03-04T01:52:11.220Z,53.30
2018-03-04T01:53:13.392Z,54.90
2018-03-04T01:54:12.231Z,58.80
2018-03-04T01:55:11.680Z,57.30
2018-03-04T01:56:09.815Z,57.60
2018-03-04T01:57:08.137Z,54.30
2018-03-04T01:58:12.636Z,58.70
2018-03-04T01:59:12.255Z,54.50
2018-03-04T02:00:13.948Z,59.00
2018-03-04T02:01:09.297Z,58.10
2018-03-04T02:02:12.732Z,53.90
2018-03-04T02:03:38.151Z,56.70
2018-03-04T02:04:35.154Z,59.30
2018-03-04T02:05:34.673Z,61.90
2018-03-04T02:06:35.658Z,61.10
2018-03-04T02:07:39.828Z,59.10
2018-03-04T02:08:39.599Z,60.20
2018-03-04T02:10:05.991Z,59.00
2018-03-04T02:10:58.292Z,59.60
2018-03-04T02:11:58.643Z,56.10
2018-03-04T02:13:02.314Z,56.80
2018-03-04T02:13:57.973Z,61.70
2018-03-04T02:14:54.903Z,61.20
2018-03-04T02:15:56.713Z,55.30
2018-03-04T02:16:54.610Z,58.20
2018-03-04T02:18:26.430Z,59.40
2018-03-04T02:19:32.680Z,60.70
2018-03-04T02:20:32.507Z,65.20
2018-03-04T02:21:35.869Z,62.50
2018-03-04T02:23:19.381Z,61.50
2018-03-04T02:24:11.023Z,62.00
2018-03-04T02:25:14.470Z,59.30
2018-03-04T02:26:12.739Z,64.80
2018-03-04T02:27:14.207Z,60.60
2018-03-04T02:28:09.959Z,62.00
2018-03-04T02:29:09.690Z,59.70
2018-03-04T02:30:06.997Z,63.00
2018-03-04T02:31:11.419Z,57.90
2018-03-04T02:32:25.810Z,61.90
2018-03-04T02:33:07.357Z,64.20
2018-03-04T02:34:16.593Z,59.20
2018-03-04T02:35:13.413Z,62.50
2018-03-04T02:37:20.750Z,60.10
2018-03-04T02:38:54.972Z,65.80
2018-03-04T02:39:48.093Z,59.60
2018-03-04T02:40:48.570Z,67.50
2018-03-04T02:41:57.597Z,65.70
2018-03-04T02:42:48.209Z,62.30
2018-03-04T02:43:49.318Z,61.60
2018-03-04T02:44:49.404Z,68.40
2018-03-04T02:45:51.479Z,66.00
2018-03-04T02:46:46.558Z,64.30
2018-03-04T02:47:52.348Z,66.80
2018-03-04T02:48:49.906Z,59.40
2018-03-04T02:50:21.111Z,61.30
2018-03-04T02:51:13.788Z,59.50
2018-03-04T02:52:22.238Z,62.50
2018-03-04T02:53:14.739Z,59.00
2018-03-04T02:54:23.937Z,61.50
2018-03-04T02:55:13.855Z,59.10
2018-03-04T02:56:11.950Z,57.40
2018-03-04T02:57:18.446Z,64.20
2018-03-04T02:58:14.590Z,64.00
2018-03-04T02:59:19.858Z,68.60
2018-03-04T03:00:14.659Z,68.70
2018-03-04T03:01:17.253Z,61.00
2018-03-04T03:02:12.662Z,62.70
2018-03-04T03:03:14.443Z,64.20
2018-03-04T03:04:13.320Z,65.60
2018-03-04T03:05:17.521Z,66.40
2018-03-04T03:06:40.810Z,67.60
2018-03-04T03:07:41.294Z,64.70
2018-03-04T03:08:46.425Z,59.70
2018-03-04T03:09:43.523Z,70.60
2018-03-04T03:11:07.723Z,61.60
2018-03-04T03:12:04.496Z,65.20
2018-03-04T03:13:11.671Z,71.80
2018-03-04T03:14:09.606Z,59.80
2018-03-04T03:15:12.133Z,63.60
2018-03-04T03:16:10.032Z,66.80
2018-03-04T03:17:06.989Z,68.70
2018-03-04T03:18:15.800Z,66.30
2018-03-04T03:19:15.239Z,67.80
2018-03-04T03:21:45.883Z,70.30
2018-03-04T03:23:14.457Z,66.50
2018-03-04T03:24:11.811Z,65.80
2018-03-04T03:25:18.354Z,71.80
2018-03-04T03:26:13.205Z,66.10
2018-03-04T03:27:14.456Z,68.60
2018-03-04T03:28:18.325Z,65.80
2018-03-04T03:29:27.914Z,65.70
2018-03-04T03:30:19.839Z,68.80
2018-03-04T03:31:21.066Z,61.40
2018-03-04T03:32:25.857Z,67.20
2018-03-04T03:33:45.531Z,67.70
2018-03-04T03:35:59.618Z,66.80
2018-03-04T03:36:55.402Z,67.90
2018-03-04T03:37:51.527Z,64.10
2018-03-04T03:38:50.719Z,64.90
2018-03-04T03:39:48.854Z,68.20
2018-03-04T03:41:01.700Z,70.90
2018-03-04T03:41:53.885Z,70.10
2018-03-04T03:42:49.537Z,64.40
2018-03-04T03:43:54.139Z,66.60
2018-03-04T03:44:52.275Z,63.70
2018-03-04T03:46:18.145Z,64.60
2018-03-04T03:47:44.318Z,71.10
2018-03-04T03:48:57.516Z,69.50
2018-03-04T03:49:48.365Z,67.20
2018-03-04T03:50:52.443Z,61.70
2018-03-04T03:51:49.927Z,66.90
2018-03-04T03:52:49.220Z,70.40
2018-03-04T03:53:53.075Z,68.60
2018-03-04T03:54:55.086Z,65.10
2018-03-04T03:55:51.268Z,71.70
2018-03-04T03:57:03.877Z,66.40
2018-03-04T03:57:40.493Z,68.90
2018-03-04T03:58:40.866Z,68.60
2018-03-04T03:59:41.969Z,65.50
2018-03-04T04:01:02.030Z,65.90
2018-03-04T04:02:02.832Z,66.20
2018-03-04T04:03:23.582Z,66.50
2018-03-04T04:04:24.424Z,66.20
2018-03-04T04:05:24.124Z,69.60
2018-03-04T04:07:08.547Z,65.80
2018-03-04T04:08:22.686Z,69.60
2018-03-04T04:09:09.070Z,69.10
2018-03-04T04:10:09.033Z,66.60
2018-03-04T04:11:31.443Z,68.80
2018-03-04T04:12:31.991Z,62.40
2018-03-04T04:13:31.903Z,65.80
2018-03-04T04:14:31.230Z,67.50
2018-03-04T04:15:32.012Z,67.60
2018-03-04T04:16:31.589Z,65.70
2018-03-04T04:17:32.441Z,67.20
2018-03-04T04:18:32.406Z,65.30
2018-03-04T04:19:32.417Z,61.20
2018-03-04T04:20:31.896Z,70.70
2018-03-04T04:21:31.732Z,69.40
2018-03-04T04:22:32.126Z,66.00
2018-03-04T04:23:53.741Z,68.50
2018-03-04T04:24:54.558Z,65.10
2018-03-04T04:25:54.226Z,64.30
2018-03-04T04:26:53.768Z,67.90
2018-03-04T04:27:54.164Z,67.30
2018-03-04T04:28:54.168Z,61.80
2018-03-04T04:29:53.779Z,63.00
2018-03-04T04:30:54.164Z,65.10
2018-03-04T04:31:53.665Z,68.90
2018-03-04T04:32:54.141Z,69.30
2018-03-04T04:33:53.597Z,67.50
2018-03-04T04:34:54.428Z,68.30
2018-03-04T04:35:53.902Z,65.70
2018-03-04T04:36:54.293Z,68.90
2018-03-04T04:37:53.870Z,64.90
2018-03-04T04:38:54.080Z,66.90
2018-03-04T04:39:53.533Z,68.20
2018-03-04T04:40:54.483Z,68.50
2018-03-04T04:41:54.220Z,65.40
2018-03-04T04:42:54.154Z,68.30
2018-03-04T04:43:53.654Z,67.60
2018-03-04T04:44:54.258Z,68.70
2018-03-04T04:45:54.158Z,65.00
2018-03-04T04:46:54.081Z,66.60
2018-03-04T04:47:54.095Z,68.50
2018-03-04T04:49:35.993Z,66.60
2018-03-04T04:50:36.515Z,63.20
2018-03-04T04:51:58.130Z,64.90
2018-03-04T04:52:58.706Z,66.70
2018-03-04T04:53:58.266Z,69.90
2018-03-04T04:54:59.030Z,74.30
2018-03-04T04:55:58.358Z,62.50
2018-03-04T04:57:19.066Z,66.90
2018-03-04T04:58:19.468Z,67.30
2018-03-04T04:59:20.231Z,66.80
2018-03-04T05:00:20.113Z,66.50
2018-03-04T05:01:19.497Z,60.80
2018-03-04T05:02:20.179Z,74.80
2018-03-04T05:03:20.375Z,70.30
2018-03-04T05:04:20.173Z,70.80
2018-03-04T05:05:19.899Z,65.40
2018-03-04T05:06:19.573Z,66.80
2018-03-04T05:07:20.430Z,62.90
2018-03-04T05:08:20.455Z,67.40
2018-03-04T05:09:19.700Z,63.80
2018-03-04T05:10:20.374Z,62.90
2018-03-04T05:11:41.434Z,63.80
2018-03-04T05:13:03.895Z,61.90
2018-03-04T05:14:04.734Z,71.30
2018-03-04T05:15:04.642Z,63.80
2018-03-04T05:16:04.481Z,61.80
2018-03-04T05:17:04.326Z,67.00
2018-03-04T05:18:04.158Z,66.10
2018-03-04T05:19:04.126Z,65.90
2018-03-04T05:20:04.016Z,59.40
2018-03-04T05:21:04.886Z,62.50
2018-03-04T05:22:04.727Z,62.70
2018-03-04T05:23:04.466Z,60.10
2018-03-04T05:24:25.627Z,62.50
2018-03-04T05:25:26.064Z,65.90
2018-03-04T05:26:46.998Z,63.50
2018-03-04T05:27:47.459Z,66.00
2018-03-04T05:28:46.781Z,59.70
2018-03-04T05:29:46.994Z,61.70
2018-03-04T05:30:47.318Z,57.00
2018-03-04T05:31:46.904Z,61.40
2018-03-04T05:32:47.283Z,65.40
2018-03-04T05:33:47.169Z,60.70
2018-03-04T05:34:46.639Z,61.30
2018-03-04T05:35:47.442Z,64.80
2018-03-04T05:37:29.613Z,56.80
2018-03-04T05:38:30.267Z,58.90
2018-03-04T05:39:30.228Z,58.40
2018-03-04T05:40:30.161Z,64.90
2018-03-04T05:41:29.497Z,65.80
2018-03-04T05:42:30.397Z,62.00
2018-03-04T05:43:51.079Z,61.10
2018-03-04T05:44:51.913Z,66.90
2018-03-04T05:46:13.154Z,61.70
2018-03-04T05:47:14.143Z,63.20
2018-03-04T05:48:44.034Z,67.30
2018-03-04T05:49:44.622Z,60.20
2018-03-04T05:50:44.679Z,64.80
2018-03-04T05:51:44.390Z,59.90
2018-03-04T05:52:44.127Z,61.50
2018-03-04T05:53:44.125Z,63.50
2018-03-04T05:54:44.422Z,60.80
2018-03-04T05:56:05.401Z,59.20
2018-03-04T05:57:05.977Z,60.10
2018-03-04T05:58:05.302Z,59.80
2018-03-04T05:59:05.727Z,62.10
2018-03-04T06:00:06.480Z,65.10
2018-03-04T06:01:06.120Z,61.00
2018-03-04T06:02:06.003Z,63.20
2018-03-04T06:03:27.511Z,60.90
2018-03-04T06:04:27.853Z,63.00
2018-03-04T06:05:27.264Z,69.00
2018-03-04T06:06:28.310Z,62.90
2018-03-04T06:07:28.256Z,63.20
2018-03-04T06:08:27.967Z,59.10
2018-03-04T06:09:27.857Z,61.90
2018-03-04T06:10:27.686Z,63.10
2018-03-04T06:11:28.149Z,62.60
2018-03-04T06:12:27.667Z,60.70
2018-03-04T06:13:28.546Z,67.30
2018-03-04T06:14:28.358Z,63.80
2018-03-04T06:15:28.155Z,63.40
2018-03-04T06:16:28.197Z,61.20
2018-03-04T06:17:27.768Z,61.60
2018-03-04T06:18:27.613Z,65.40
2018-03-04T06:19:28.408Z,65.10
2018-03-04T06:20:49.936Z,61.10
2018-03-04T06:21:50.683Z,63.40
2018-03-04T06:22:50.576Z,65.00
2018-03-04T06:23:50.455Z,62.90
2018-03-04T06:24:50.384Z,62.50
2018-03-04T06:25:50.212Z,60.50
2018-03-04T06:27:15.197Z,67.90
2018-03-04T06:28:12.754Z,66.10
2018-03-04T06:29:13.070Z,61.20
2018-03-04T06:30:14.368Z,67.40
2018-03-04T06:31:15.487Z,65.30
2018-03-04T06:32:14.717Z,62.00
2018-03-04T06:33:18.491Z,62.50
2018-03-04T06:34:13.283Z,67.20
2018-03-04T06:35:12.552Z,59.40
2018-03-04T06:36:35.809Z,63.80
2018-03-04T06:37:36.171Z,62.60
2018-03-04T06:39:19.775Z,65.60
2018-03-04T06:40:18.327Z,63.50
2018-03-04T06:41:39.137Z,62.90
2018-03-04T06:42:39.926Z,61.30
2018-03-04T06:43:39.449Z,63.00
2018-03-04T06:44:39.907Z,66.30
2018-03-04T06:45:39.433Z,68.90
2018-03-04T06:47:02.190Z,61.50
2018-03-04T06:48:24.407Z,66.50
2018-03-04T06:49:24.856Z,63.50
2018-03-04T06:50:27.710Z,62.50
2018-03-04T06:51:25.304Z,62.50
2018-03-04T06:52:48.899Z,62.50
2018-03-04T06:53:50.092Z,69.10
2018-03-04T06:54:48.969Z,66.90
2018-03-04T06:55:50.601Z,66.60
2018-03-04T06:56:48.724Z,64.70
2018-03-04T06:57:48.559Z,64.40
2018-03-04T06:58:49.172Z,63.20
2018-03-04T06:59:49.192Z,67.20
2018-03-04T07:01:33.320Z,68.20
2018-03-04T07:02:34.321Z,67.40
2018-03-04T07:03:33.720Z,67.80
2018-03-04T07:04:34.941Z,65.50
2018-03-04T07:05:35.780Z,66.10
2018-03-04T07:06:33.835Z,66.00
2018-03-04T07:07:33.972Z,59.80
2018-03-04T07:08:33.779Z,64.30
2018-03-04T07:09:33.927Z,63.40
2018-03-04T07:10:56.705Z,63.30
2018-03-04T07:11:57.480Z,63.00
2018-03-04T07:12:56.935Z,61.20
2018-03-04T07:13:57.117Z,63.90
2018-03-04T07:14:56.977Z,62.80
2018-03-04T07:15:56.569Z,65.40
2018-03-04T07:17:19.266Z,60.00
2018-03-04T07:18:19.005Z,64.50
2018-03-04T07:19:18.860Z,67.00
2018-03-04T07:20:21.038Z,67.20
2018-03-04T07:21:18.859Z,63.40
2018-03-04T07:22:20.223Z,62.90
2018-03-04T07:23:19.549Z,69.00
2018-03-04T07:24:19.350Z,63.20
2018-03-04T07:25:18.939Z,65.30
2018-03-04T07:26:20.074Z,66.70
2018-03-04T07:27:19.779Z,63.40
2018-03-04T07:28:19.680Z,60.50
2018-03-04T07:29:20.788Z,62.10
2018-03-04T07:30:19.468Z,62.80
2018-03-04T07:31:19.655Z,65.70
2018-03-04T07:32:20.056Z,63.20
2018-03-04T07:33:19.126Z,66.20
2018-03-04T07:34:19.155Z,66.10
2018-03-04T07:35:19.806Z,60.40
2018-03-04T07:36:18.834Z,65.90
2018-03-04T07:37:18.567Z,62.50
2018-03-04T07:38:20.195Z,68.00
2018-03-04T07:39:19.763Z,63.50
2018-03-04T07:40:18.929Z,63.00
2018-03-04T07:41:18.534Z,67.80
2018-03-04T07:42:20.456Z,67.00
2018-03-04T07:43:20.254Z,68.40
2018-03-04T07:44:18.562Z,63.60
2018-03-04T07:45:19.533Z,67.40
2018-03-04T07:46:19.534Z,66.60
2018-03-04T07:47:19.661Z,66.20
2018-03-04T07:48:18.587Z,64.80
2018-03-04T07:49:18.925Z,62.80
2018-03-04T07:50:19.122Z,65.30
2018-03-04T07:51:18.578Z,65.10
2018-03-04T07:52:20.614Z,66.40
2018-03-04T07:53:19.668Z,65.00
2018-03-04T07:54:19.540Z,63.60
2018-03-04T07:55:20.569Z,59.60
2018-03-04T07:56:22.595Z,65.50
2018-03-04T07:57:19.385Z,68.70
2018-03-04T07:58:19.211Z,70.60
2018-03-04T07:59:20.174Z,61.80
2018-03-04T08:00:20.556Z,65.10
2018-03-04T08:01:19.485Z,68.50
2018-03-04T08:03:04.206Z,65.30
2018-03-04T08:04:04.622Z,68.40
2018-03-04T08:05:04.378Z,66.30
2018-03-04T08:06:03.957Z,65.50
2018-03-04T08:07:06.369Z,66.80
2018-03-04T08:08:48.202Z,68.40
2018-03-04T08:09:50.254Z,66.90
2018-03-04T08:11:10.885Z,68.80
2018-03-04T08:12:10.777Z,66.40
2018-03-04T08:13:10.796Z,68.50
2018-03-04T08:14:10.288Z,67.00
2018-03-04T08:15:11.513Z,70.30
2018-03-04T08:16:12.016Z,68.70
2018-03-04T08:17:32.452Z,67.20
2018-03-04T08:18:32.981Z,65.40
2018-03-04T08:19:32.597Z,68.90
2018-03-04T08:20:33.186Z,75.90
2018-03-04T08:21:32.655Z,70.90
2018-03-04T08:24:02.193Z,69.60
2018-03-04T08:25:03.106Z,74.70
2018-03-04T08:26:02.897Z,67.80
2018-03-04T08:27:02.902Z,70.10
2018-03-04T08:28:02.432Z,74.20
2018-03-04T08:29:02.581Z,76.90
2018-03-04T08:30:02.738Z,70.50
2018-03-04T08:31:04.477Z,71.00
2018-03-04T08:32:02.906Z,74.20
2018-03-04T08:33:03.181Z,68.60
2018-03-04T08:34:03.094Z,68.70
2018-03-04T08:35:03.318Z,71.80
2018-03-04T08:36:13.866Z,72.30
2018-03-04T08:37:02.631Z,69.30
2018-03-04T08:38:03.509Z,63.80
2018-03-04T08:39:49.823Z,218.80
2018-03-04T08:40:52.395Z,86.00
2018-03-04T08:41:57.170Z,67.50
2018-03-04T08:42:52.191Z,69.20
2018-03-04T08:43:49.742Z,64.60
2018-03-04T08:44:51.368Z,74.30
2018-03-04T08:45:49.547Z,75.90
2018-03-04T08:46:49.977Z,75.30
2018-03-04T08:47:51.507Z,75.20
2018-03-04T08:48:51.168Z,74.10
2018-03-04T08:49:49.310Z,67.40
2018-03-04T08:51:40.080Z,68.50
2018-03-04T08:52:39.600Z,73.30
2018-03-04T08:53:41.743Z,72.00
2018-03-04T08:55:04.691Z,63.50
2018-03-04T08:56:05.536Z,70.70
2018-03-04T08:57:03.225Z,70.90
2018-03-04T08:58:22.767Z,71.50
2018-03-04T08:59:43.909Z,78.00
2018-03-04T09:00:45.045Z,68.40
2018-03-04T09:02:06.779Z,70.90
2018-03-04T09:03:31.858Z,72.50
2018-03-04T09:04:52.545Z,75.60
2018-03-04T09:05:52.374Z,69.60
2018-03-04T09:07:20.337Z,70.30
2018-03-04T09:07:54.121Z,73.80
2018-03-04T09:08:55.303Z,75.20
2018-03-04T09:10:15.559Z,77.90
2018-03-04T09:11:16.022Z,70.70
2018-03-04T09:12:38.473Z,71.20
2018-03-04T09:14:01.296Z,80.90
2018-03-04T09:15:01.460Z,72.00
2018-03-04T09:16:01.925Z,68.70
2018-03-04T09:17:00.643Z,75.30
2018-03-04T09:18:23.539Z,75.40
2018-03-04T09:19:24.093Z,77.90
2018-03-04T09:20:23.160Z,69.40
2018-03-04T09:21:22.829Z,70.70
2018-03-04T09:22:46.069Z,76.60
2018-03-04T09:24:11.624Z,76.70
2018-03-04T09:25:11.967Z,79.60
2018-03-04T09:26:36.065Z,70.90
2018-03-04T09:27:34.757Z,78.70
2018-03-04T09:28:35.673Z,70.90
2018-03-04T09:29:34.780Z,75.50
2018-03-04T09:30:33.818Z,71.50
2018-03-04T09:31:58.841Z,76.60
2018-03-04T09:33:08.503Z,75.40
2018-03-04T09:33:58.608Z,71.20
2018-03-04T09:34:58.893Z,80.00
2018-03-04T09:35:57.780Z,74.00
2018-03-04T09:36:59.880Z,75.20
2018-03-04T09:37:58.957Z,69.80
2018-03-04T09:38:58.774Z,73.50
2018-03-04T09:39:58.958Z,67.80
2018-03-04T09:40:58.216Z,74.00
2018-03-04T09:41:57.982Z,81.80
2018-03-04T09:42:58.105Z,72.90
2018-03-04T09:43:57.842Z,74.70
2018-03-04T09:44:59.921Z,73.60
2018-03-04T09:46:01.931Z,68.80
2018-03-04T09:47:20.699Z,72.90
2018-03-04T09:48:22.131Z,77.00
2018-03-04T09:49:21.426Z,71.60
2018-03-04T09:50:21.404Z,75.60
2018-03-04T09:51:42.138Z,72.70
2018-03-04T09:52:42.358Z,76.40
2018-03-04T09:53:43.214Z,77.40
2018-03-04T09:54:42.187Z,72.60
2018-03-04T09:55:43.216Z,72.20
2018-03-04T09:56:42.272Z,72.50
2018-03-04T09:57:42.500Z,80.70
2018-03-04T09:58:43.436Z,71.90
2018-03-04T09:59:42.303Z,74.10
2018-03-04T10:00:42.427Z,74.40
2018-03-04T10:01:42.687Z,75.80
2018-03-04T10:02:43.556Z,71.00
2018-03-04T10:03:42.809Z,69.70
2018-03-04T10:04:42.613Z,77.00
2018-03-04T10:05:42.573Z,74.60
2018-03-04T10:06:42.796Z,79.70
2018-03-04T10:07:44.516Z,73.80
2018-03-04T10:08:42.625Z,75.90
2018-03-04T10:09:43.530Z,73.70
2018-03-04T10:10:42.330Z,73.00
2018-03-04T10:11:43.142Z,75.60
2018-03-04T10:12:42.194Z,74.60
2018-03-04T10:13:43.067Z,79.00
2018-03-04T10:14:41.812Z,74.60
2018-03-04T10:15:43.021Z,73.30
2018-03-04T10:16:42.196Z,77.80
2018-03-04T10:17:41.900Z,76.00
2018-03-04T10:18:43.179Z,72.60
2018-03-04T10:19:43.221Z,80.40
2018-03-04T10:20:42.359Z,75.80
2018-03-04T10:21:42.051Z,83.40
2018-03-04T10:22:41.988Z,76.00
2018-03-04T10:23:43.643Z,76.00
2018-03-04T10:25:05.207Z,74.40
2018-03-04T10:26:06.856Z,81.10
2018-03-04T10:27:06.426Z,78.50
2018-03-04T10:28:11.646Z,74.60
2018-03-04T10:29:06.032Z,74.10
2018-03-04T10:30:06.020Z,76.50
2018-03-04T10:31:06.152Z,73.80
2018-03-04T10:32:06.341Z,77.70
2018-03-04T10:33:05.766Z,77.60
2018-03-04T10:34:06.029Z,74.00
2018-03-04T10:35:07.418Z,72.60
2018-03-04T10:36:04.954Z,76.00
2018-03-04T10:37:10.463Z,73.90
2018-03-04T10:38:05.925Z,78.30
2018-03-04T10:39:28.445Z,75.70
2018-03-04T10:40:29.498Z,73.90
2018-03-04T10:41:50.483Z,75.90
2018-03-04T10:42:51.326Z,74.70
2018-03-04T10:43:51.509Z,71.60
2018-03-04T10:45:57.461Z,74.00
2018-03-04T10:46:58.291Z,77.50
2018-03-04T10:47:58.840Z,80.50
2018-03-04T10:48:58.780Z,71.20
2018-03-04T10:49:58.141Z,75.60
2018-03-04T10:50:59.007Z,77.00
2018-03-04T10:51:58.541Z,72.40
2018-03-04T10:52:57.787Z,71.50
2018-03-04T10:54:02.013Z,78.80
2018-03-04T10:54:58.173Z,84.80
2018-03-04T10:55:58.823Z,76.10
2018-03-04T10:56:58.246Z,80.50
2018-03-04T10:57:57.950Z,76.30
2018-03-04T10:58:57.987Z,74.10
2018-03-04T11:00:00.190Z,73.80
2018-03-04T11:00:57.443Z,72.20
2018-03-04T11:01:59.086Z,73.10
2018-03-04T11:03:19.709Z,78.40
2018-03-04T11:04:43.377Z,75.30
2018-03-04T11:05:45.913Z,78.40
2018-03-04T11:06:46.262Z,77.50
2018-03-04T11:07:43.239Z,76.80
2018-03-04T11:08:44.030Z,73.90
2018-03-04T11:09:43.847Z,78.60
2018-03-04T11:10:42.879Z,71.00
2018-03-04T11:11:43.081Z,75.10
2018-03-04T11:12:43.104Z,79.30
2018-03-04T11:13:43.064Z,76.10
2018-03-04T11:14:42.637Z,74.90
2018-03-04T11:15:43.560Z,77.30
2018-03-04T11:16:43.100Z,76.50
2018-03-04T11:17:51.146Z,76.30
2018-03-04T11:18:48.660Z,77.50
2018-03-04T11:19:46.803Z,77.80
2018-03-04T11:20:44.499Z,75.60
2018-03-04T11:21:44.556Z,70.40
2018-03-04T11:23:07.262Z,76.30
2018-03-04T11:24:33.688Z,78.10
2018-03-04T11:25:33.622Z,79.50
2018-03-04T11:26:33.357Z,77.70
2018-03-04T11:27:33.230Z,72.70
2018-03-04T11:28:35.486Z,76.30
2018-03-04T11:29:57.181Z,75.10
2018-03-04T11:30:56.958Z,78.60
2018-03-04T11:32:21.327Z,77.00
2018-03-04T11:33:21.865Z,78.90
2018-03-04T11:34:43.822Z,75.80
2018-03-04T11:37:16.646Z,71.50
2018-03-04T11:38:38.533Z,73.20
2018-03-04T11:39:52.936Z,80.30
2018-03-04T11:40:43.453Z,76.30
2018-03-04T11:42:07.066Z,74.80
2018-03-04T11:45:29.887Z,73.40
2018-03-04T11:46:29.373Z,73.10
2018-03-04T11:48:53.706Z,74.00
2018-03-04T11:50:08.850Z,78.00
2018-03-04T11:51:00.332Z,70.00
2018-03-04T11:52:06.614Z,78.70
2018-03-04T11:53:18.502Z,73.30
2018-03-04T11:54:22.790Z,75.30
2018-03-04T11:55:47.869Z,80.00
2018-03-04T11:56:55.349Z,76.60
2018-03-04T11:57:57.100Z,75.20
2018-03-04T11:58:49.356Z,75.00
2018-03-04T11:59:56.806Z,73.00
2018-03-04T12:00:51.534Z,78.50
2018-03-04T12:01:53.680Z,73.10
2018-03-04T12:02:54.003Z,80.30
2018-03-04T12:03:56.097Z,81.50
2018-03-04T12:04:57.996Z,79.60
2018-03-04T12:05:52.000Z,72.00
2018-03-04T12:06:47.611Z,82.00
2018-03-04T12:07:52.465Z,77.30
2018-03-04T12:09:21.862Z,76.20
2018-03-04T12:10:17.346Z,80.50
2018-03-04T12:11:22.073Z,81.30
2018-03-04T12:12:17.748Z,78.70
2018-03-04T12:13:47.457Z,73.80
2018-03-04T12:15:25.969Z,82.60
2018-03-04T12:16:10.154Z,79.90
2018-03-04T12:17:13.699Z,75.50
2018-03-04T12:19:46.867Z,80.30
2018-03-04T12:20:42.647Z,78.20
2018-03-04T12:21:41.604Z,80.90
2018-03-04T12:22:43.006Z,79.10
2018-03-04T12:23:46.724Z,78.30
2018-03-04T12:25:10.944Z,74.50
2018-03-04T12:26:05.811Z,74.90
2018-03-04T12:27:08.101Z,76.40
2018-03-04T12:28:04.840Z,75.70
2018-03-04T12:29:06.435Z,81.00
2018-03-04T12:30:37.247Z,83.90
2018-03-04T12:31:35.909Z,93.10
2018-03-04T12:32:50.587Z,90.30
2018-03-04T12:33:46.381Z,150.70
2018-03-04T12:34:36.361Z,98.60
2018-03-04T12:35:36.208Z,78.00
2018-03-04T12:36:34.601Z,77.20
2018-03-04T12:37:32.934Z,79.90
2018-03-04T12:38:33.168Z,82.90
2018-03-04T12:39:33.630Z,75.70
2018-03-04T12:40:33.148Z,76.00
2018-03-04T12:41:33.843Z,78.50
2018-03-04T12:42:33.252Z,74.30
2018-03-04T12:43:37.969Z,78.60
2018-03-04T12:45:23.433Z,78.00
2018-03-04T12:46:24.359Z,76.50
2018-03-04T12:47:26.978Z,75.10
2018-03-04T12:48:26.467Z,79.20
2018-03-04T12:49:25.858Z,77.50
2018-03-04T12:50:24.014Z,76.20
2018-03-04T12:51:23.892Z,77.00
2018-03-04T12:52:26.479Z,78.90
2018-03-04T12:53:23.509Z,75.50
2018-03-04T12:54:24.299Z,81.00
2018-03-04T12:55:22.807Z,74.00
2018-03-04T12:56:24.408Z,74.70
2018-03-04T12:57:28.615Z,80.20
2018-03-04T12:58:25.528Z,77.70
2018-03-04T12:59:22.720Z,78.10
2018-03-04T13:00:24.064Z,79.40
2018-03-04T13:01:22.050Z,79.60
2018-03-04T13:02:44.753Z,77.30
2018-03-04T13:03:44.765Z,81.00
2018-03-04T13:04:45.098Z,83.10
2018-03-04T13:05:50.132Z,76.50
2018-03-04T13:06:45.122Z,73.20
2018-03-04T13:07:45.100Z,81.10
2018-03-04T13:09:16.014Z,73.40
2018-03-04T13:10:10.766Z,75.00
2018-03-04T13:11:09.843Z,79.10
2018-03-04T13:12:10.035Z,75.70
2018-03-04T13:13:09.746Z,77.10
2018-03-04T13:14:10.175Z,80.50
2018-03-04T13:15:32.402Z,74.70
2018-03-04T13:16:32.746Z,73.70
2018-03-04T13:17:33.746Z,78.90
2018-03-04T13:18:56.242Z,75.40
2018-03-04T13:19:55.261Z,77.20
2018-03-04T13:20:54.988Z,76.10
2018-03-04T13:21:56.039Z,76.50
2018-03-04T13:22:57.531Z,74.80
2018-03-04T13:23:55.433Z,81.00
2018-03-04T13:24:55.864Z,70.00
2018-03-04T13:25:54.954Z,69.80
2018-03-04T13:26:56.420Z,71.60
2018-03-04T13:27:54.643Z,71.20
2018-03-04T13:28:54.838Z,67.90
2018-03-04T13:29:55.044Z,70.70
2018-03-04T13:31:17.444Z,70.70
2018-03-04T13:32:17.798Z,71.90
2018-03-04T13:33:17.969Z,68.20
2018-03-04T13:34:17.033Z,67.40
2018-03-04T13:35:18.959Z,71.80
2018-03-04T13:36:17.796Z,66.70
2018-03-04T13:37:18.389Z,68.60
2018-03-04T13:38:17.119Z,63.50
2018-03-04T13:39:20.164Z,68.10
2018-03-04T13:40:17.784Z,72.10
2018-03-04T13:43:13.301Z,0.00
2018-03-04T13:44:10.881Z,78.40
2018-03-04T13:45:32.708Z,71.20
2018-03-04T13:46:33.475Z,72.20
2018-03-04T13:47:33.858Z,69.50
2018-03-04T13:48:33.068Z,70.70
2018-03-04T13:49:32.784Z,70.20
2018-03-04T13:50:34.010Z,66.10
2018-03-04T13:51:33.582Z,68.10
2018-03-04T13:52:33.307Z,68.00